Time;durP1;ratioP1;P1;durP2;ratioP2;P2;SDS_P1;SDS_P2;PMS_P1;PMS_P2;Temp;Humidity;BMP_temperature;BMP_pressure;BME280_temperature;BME280_humidity;BME280_pressure;Samples;Min_cycle;Max_cycle;Signal;HPM_P1;HPM_P2
2022/08/03 00:01:34;;;;;;;5.05;2.00;;;24.60;63.10;;;;;;5025204;28;20030;-55
2022/08/03 00:04:00;;;;;;;3.10;1.70;;;24.60;63.10;;;;;;5025243;28;20028;-55
2022/08/03 00:06:26;;;;;;;4.07;1.77;;;24.60;63.20;;;;;;5028046;28;20030;-55
2022/08/03 00:08:52;;;;;;;4.00;1.70;;;24.60;63.20;;;;;;5030109;28;20033;-55
2022/08/03 00:11:17;;;;;;;5.90;1.77;;;24.60;63.20;;;;;;5029634;28;20034;-55
2022/08/03 00:13:43;;;;;;;3.90;1.90;;;24.60;63.20;;;;;;5025830;28;20068;-55
2022/08/03 00:16:09;;;;;;;4.97;1.90;;;24.60;63.20;;;;;;5028011;28;20025;-55
2022/08/03 00:18:35;;;;;;;4.53;1.90;;;24.60;63.20;;;;;;5025761;28;20021;-56
2022/08/03 00:21:02;;;;;;;3.95;1.90;;;24.60;63.20;;;;;;5029471;28;20064;-55
2022/08/03 00:23:27;;;;;;;5.18;2.28;;;24.60;63.20;;;;;;5029418;28;20021;-55
2022/08/03 00:25:53;;;;;;;3.70;1.90;;;24.60;63.20;;;;;;5030460;28;20041;-56
2022/08/03 00:28:18;;;;;;;6.00;1.80;;;24.50;63.10;;;;;;5025952;28;20033;-54
2022/08/03 00:30:44;;;;;;;5.13;2.00;;;24.60;63.20;;;;;;5027652;28;20469;-55
2022/08/03 00:33:10;;;;;;;4.68;1.80;;;24.60;63.30;;;;;;5027957;28;20533;-55
2022/08/03 00:35:35;;;;;;;5.40;1.90;;;24.60;63.30;;;;;;5029817;28;20406;-55
2022/08/03 00:38:01;;;;;;;3.67;1.80;;;24.60;63.20;;;;;;5030767;28;20104;-55
2022/08/03 00:40:27;;;;;;;3.65;1.80;;;24.50;63.20;;;;;;5031034;28;20041;-55
2022/08/03 00:42:55;;;;;;;3.80;1.80;;;24.60;63.30;;;;;;5029084;28;20476;-55
2022/08/03 00:45:22;;;;;;;4.22;2.00;;;24.50;63.20;;;;;;5030074;28;20052;-56
2022/08/03 00:47:48;;;;;;;4.63;1.90;;;24.50;63.10;;;;;;5027113;28;20151;-55
2022/08/03 00:50:14;;;;;;;5.20;2.10;;;24.50;63.10;;;;;;5026674;28;20109;-55
2022/08/03 00:52:39;;;;;;;4.03;1.60;;;24.50;63.10;;;;;;5031221;28;20018;-55
2022/08/03 00:55:05;;;;;;;2.88;1.77;;;24.50;63.10;;;;;;5029479;28;20134;-56
2022/08/03 00:57:31;;;;;;;5.18;1.90;;;24.50;63.10;;;;;;5031218;28;20084;-56
2022/08/03 00:59:58;;;;;;;5.82;2.00;;;24.50;63.20;;;;;;5026474;28;20038;-56
2022/08/03 01:02:25;;;;;;;4.60;1.85;;;24.50;63.10;;;;;;5029189;28;20025;-56
2022/08/03 01:04:51;;;;;;;3.97;1.85;;;24.50;63.10;;;;;;5033295;28;20040;-56
2022/08/03 01:07:42;;;;;;;5.05;1.88;;;24.50;63.20;;;;;;5034336;28;20034;-56
2022/08/03 01:10:08;;;;;;;3.90;1.65;;;24.50;63.10;;;;;;5035660;28;20044;-56
2022/08/03 01:13:00;;;;;;;3.30;1.60;;;24.50;63.00;;;;;;5030293;28;20401;-56
2022/08/03 01:16:00;;;;;;;3.55;1.60;;;24.50;63.00;;;;;;5028644;28;20026;-56
2022/08/03 01:18:37;;;;;;;4.13;1.65;;;24.50;63.00;;;;;;5003274;28;20038;-56
2022/08/03 01:21:10;;;;;;;5.32;1.70;;;24.50;63.10;;;;;;5003900;28;20414;-56
2022/08/03 01:23:56;;;;;;;3.97;1.70;;;24.40;63.10;;;;;;5005492;28;20046;-56
2022/08/03 01:26:55;;;;;;;6.38;2.03;;;24.40;63.00;;;;;;5001490;28;20062;-56
2022/08/03 01:29:48;;;;;;;3.45;1.58;;;24.40;63.00;;;;;;5004706;28;20045;-56
2022/08/03 01:32:44;;;;;;;3.67;1.60;;;24.40;63.10;;;;;;5003656;28;20066;-56
2022/08/03 01:35:12;;;;;;;4.88;1.63;;;24.40;63.00;;;;;;5003208;28;20042;-56
2022/08/03 01:37:51;;;;;;;3.67;1.80;;;24.40;63.10;;;;;;4984244;28;20124;-56
2022/08/03 01:40:18;;;;;;;3.80;1.63;;;24.40;63.10;;;;;;4989449;28;20046;-56
2022/08/03 01:42:44;;;;;;;4.07;1.60;;;24.40;63.00;;;;;;5005765;28;20037;-56
2022/08/03 01:45:11;;;;;;;3.58;1.60;;;24.40;63.00;;;;;;4987978;28;20033;-56
2022/08/03 01:47:37;;;;;;;4.50;1.65;;;24.40;63.10;;;;;;4988513;28;20697;-56
2022/08/03 01:50:04;;;;;;;4.22;1.70;;;24.40;63.00;;;;;;5005066;28;20177;-56
2022/08/03 01:52:30;;;;;;;3.80;1.80;;;24.40;63.00;;;;;;4988258;28;20040;-56
2022/08/03 01:54:55;;;;;;;4.43;1.80;;;24.40;63.10;;;;;;5022258;28;20120;-56
2022/08/03 01:57:21;;;;;;;4.60;1.80;;;24.40;63.00;;;;;;5038930;28;20025;-56
2022/08/03 01:59:48;;;;;;;4.20;1.70;;;24.40;63.00;;;;;;5028108;28;20033;-55
2022/08/03 02:02:15;;;;;;;4.40;1.40;;;24.40;63.10;;;;;;5034305;28;20560;-55
2022/08/03 02:04:41;;;;;;;4.40;1.77;;;24.30;63.00;;;;;;5050267;28;20021;-55
2022/08/03 02:07:07;;;;;;;4.10;1.52;;;24.30;62.90;;;;;;5010375;28;20100;-55
2022/08/03 02:09:33;;;;;;;3.55;1.70;;;24.30;62.90;;;;;;5026439;28;20018;-55
2022/08/03 02:11:59;;;;;;;2.83;1.30;;;24.30;62.90;;;;;;5050450;28;20116;-55
2022/08/03 02:14:25;;;;;;;5.25;1.90;;;24.30;62.90;;;;;;5028047;28;20043;-55
2022/08/03 02:16:50;;;;;;;3.78;1.77;;;24.30;62.90;;;;;;5055363;28;20486;-55
2022/08/03 02:19:16;;;;;;;3.22;1.50;;;24.30;62.90;;;;;;5026469;28;20553;-55
2022/08/03 02:21:42;;;;;;;4.25;1.58;;;24.30;62.90;;;;;;5034407;28;20064;-55
2022/08/03 02:24:08;;;;;;;2.92;1.58;;;24.30;62.90;;;;;;5025998;28;20021;-55
2022/08/03 02:26:34;;;;;;;3.05;1.48;;;24.30;62.90;;;;;;5053932;28;20041;-56
2022/08/03 02:29:02;;;;;;;4.30;1.63;;;24.30;62.90;;;;;;5025728;28;20516;-55
2022/08/03 02:31:29;;;;;;;3.67;1.42;;;24.30;62.90;;;;;;5033321;28;20057;-55
2022/08/03 02:34:00;;;;;;;2.97;1.50;;;24.30;62.90;;;;;;5053481;28;20032;-55
2022/08/03 02:36:27;;;;;;;4.53;1.63;;;24.30;62.90;;;;;;5026193;28;20029;-55
2022/08/03 02:38:54;;;;;;;3.38;1.58;;;24.30;62.90;;;;;;5050759;28;20021;-55
2022/08/03 02:41:23;;;;;;;2.78;1.30;;;24.30;62.90;;;;;;5026936;28;20095;-55
2022/08/03 02:43:53;;;;;;;2.65;1.50;;;24.30;62.90;;;;;;5028075;28;20021;-55
2022/08/03 02:46:19;;;;;;;4.03;1.33;;;24.30;62.90;;;;;;5048437;28;20035;-55
2022/08/03 02:48:45;;;;;;;3.05;1.30;;;24.30;62.90;;;;;;5048954;28;20022;-55
2022/08/03 02:51:11;;;;;;;3.40;1.60;;;24.30;62.90;;;;;;5025782;28;20064;-55
2022/08/03 02:53:36;;;;;;;3.00;1.67;;;24.30;62.90;;;;;;5035929;28;20471;-55
2022/08/03 02:56:02;;;;;;;3.65;1.60;;;24.30;62.90;;;;;;5025264;28;20049;-55
2022/08/03 02:58:28;;;;;;;3.83;1.60;;;24.30;62.90;;;;;;5024836;28;20087;-55
2022/08/03 03:00:53;;;;;;;3.42;1.40;;;24.30;62.90;;;;;;5025654;28;20042;-55
2022/08/03 03:03:19;;;;;;;2.58;1.40;;;24.20;62.90;;;;;;5026542;28;20029;-55
2022/08/03 03:05:45;;;;;;;3.67;1.55;;;24.20;62.90;;;;;;5027084;28;20033;-55
2022/08/03 03:08:12;;;;;;;4.43;1.92;;;24.20;62.90;;;;;;5025098;28;20025;-55
2022/08/03 03:10:38;;;;;;;2.20;1.40;;;24.20;62.90;;;;;;5026823;28;20037;-55
2022/08/03 03:13:03;;;;;;;3.92;1.60;;;24.20;63.00;;;;;;5025905;28;20421;-55
2022/08/03 03:15:30;;;;;;;3.25;1.63;;;24.20;62.90;;;;;;5026176;28;20108;-55
2022/08/03 03:17:56;;;;;;;2.70;1.50;;;24.20;62.90;;;;;;5009425;28;20029;-55
2022/08/03 03:20:21;;;;;;;3.53;1.35;;;24.20;62.90;;;;;;5025721;28;20274;-55
2022/08/03 03:22:47;;;;;;;3.13;1.60;;;24.20;62.90;;;;;;5025250;28;20628;-55
2022/08/03 03:25:13;;;;;;;3.78;1.33;;;24.20;62.90;;;;;;5034227;28;20131;-56
2022/08/03 03:27:39;;;;;;;5.00;1.50;;;24.20;62.90;;;;;;5027904;28;20026;-55
2022/08/03 03:30:05;;;;;;;3.10;1.55;;;24.10;62.80;;;;;;5035714;28;20462;-55
2022/08/03 03:32:30;;;;;;;4.15;1.60;;;24.20;62.90;;;;;;5025084;28;20095;-55
2022/08/03 03:34:58;;;;;;;3.08;1.52;;;24.10;62.90;;;;;;5026287;28;20104;-55
2022/08/03 03:37:24;;;;;;;2.80;1.48;;;24.10;62.90;;;;;;5025887;28;20037;-55
2022/08/03 03:39:49;;;;;;;3.65;1.42;;;24.10;62.80;;;;;;5026058;28;20037;-55
2022/08/03 03:42:15;;;;;;;2.10;1.38;;;24.10;62.90;;;;;;5029687;28;20022;-55
2022/08/03 03:44:40;;;;;;;3.80;1.60;;;24.10;62.90;;;;;;5035752;28;20113;-55
2022/08/03 03:47:06;;;;;;;5.85;1.60;;;24.10;62.90;;;;;;5028836;28;20109;-55
2022/08/03 03:49:32;;;;;;;3.67;1.45;;;24.10;62.90;;;;;;5029120;28;20026;-55
2022/08/03 03:51:57;;;;;;;1.95;1.30;;;24.10;62.80;;;;;;5025419;28;20037;-55
2022/08/03 03:54:23;;;;;;;1.75;1.20;;;24.10;62.90;;;;;;5030121;28;20041;-55
2022/08/03 03:56:49;;;;;;;3.33;1.45;;;24.10;62.90;;;;;;5031195;28;20057;-55
2022/08/03 03:59:14;;;;;;;2.97;1.40;;;24.10;62.90;;;;;;5029721;28;20048;-56
2022/08/03 04:01:40;;;;;;;3.67;1.45;;;24.10;62.90;;;;;;5029913;28;20038;-55
2022/08/03 04:12:35;;;;;;;3.10;1.57;;;24.00;62.90;;;;;;5053143;28;20040;-55
2022/08/03 04:15:00;;;;;;;3.90;1.35;;;24.10;62.90;;;;;;5047621;28;21254;-55
2022/08/03 04:17:26;;;;;;;4.65;1.70;;;24.10;62.90;;;;;;5040981;28;20704;-55
2022/08/03 04:19:52;;;;;;;2.53;1.30;;;24.00;62.90;;;;;;5030025;28;20037;-55
2022/08/03 04:22:21;;;;;;;3.50;1.40;;;24.10;62.90;;;;;;5043707;28;20048;-55
2022/08/03 04:24:56;;;;;;;2.95;1.55;;;24.00;62.90;;;;;;5030316;28;20033;-55
2022/08/03 04:27:24;;;;;;;5.35;1.52;;;24.00;62.90;;;;;;5031126;28;20045;-55
2022/08/03 04:29:51;;;;;;;1.85;1.30;;;24.00;63.00;;;;;;5054632;28;20044;-55
2022/08/03 04:32:16;;;;;;;3.15;1.30;;;24.00;62.90;;;;;;5047901;28;20037;-55
2022/08/03 04:34:42;;;;;;;2.35;1.50;;;24.00;62.90;;;;;;5046129;28;20047;-55
2022/08/03 04:37:15;;;;;;;2.55;1.20;;;24.00;62.90;;;;;;5044297;28;20107;-55
2022/08/03 04:39:41;;;;;;;2.75;1.40;;;24.00;62.90;;;;;;5056697;28;20135;-55
2022/08/03 04:42:07;;;;;;;2.08;1.30;;;24.00;62.90;;;;;;5007526;28;20166;-55
2022/08/03 04:44:39;;;;;;;3.97;1.50;;;24.00;62.90;;;;;;5028234;28;20029;-56
2022/08/03 04:47:05;;;;;;;3.50;1.40;;;24.00;62.90;;;;;;5052219;28;20018;-56
2022/08/03 04:49:31;;;;;;;2.58;1.30;;;24.00;63.00;;;;;;5029872;28;20057;-56
2022/08/03 04:51:56;;;;;;;3.40;1.42;;;24.00;62.90;;;;;;5026688;28;20072;-56
2022/08/03 04:54:22;;;;;;;3.22;1.30;;;24.00;63.00;;;;;;5026817;28;20052;-56
2022/08/03 04:56:48;;;;;;;3.17;1.48;;;24.00;63.00;;;;;;5028654;28;20037;-56
2022/08/03 04:59:13;;;;;;;2.75;1.33;;;24.00;62.90;;;;;;5029140;28;20033;-56
2022/08/03 05:01:40;;;;;;;3.03;1.50;;;24.00;62.90;;;;;;5026687;28;20029;-56
2022/08/03 05:04:06;;;;;;;2.58;1.35;;;24.00;63.10;;;;;;5023752;28;20038;-56
2022/08/03 05:06:32;;;;;;;3.08;1.20;;;24.00;62.90;;;;;;5031983;28;20037;-56
2022/08/03 05:08:57;;;;;;;1.48;1.10;;;24.00;62.90;;;;;;5026190;28;20036;-56
2022/08/03 05:11:23;;;;;;;3.85;1.45;;;24.00;62.90;;;;;;5027539;28;20049;-56
2022/08/03 05:13:49;;;;;;;3.25;1.20;;;24.00;62.90;;;;;;5030154;28;20108;-56
2022/08/03 05:16:15;;;;;;;1.70;1.08;;;24.00;63.00;;;;;;5030242;28;20410;-56
2022/08/03 05:18:41;;;;;;;3.15;1.40;;;24.00;63.00;;;;;;5028168;28;20095;-56
2022/08/03 05:21:07;;;;;;;2.83;1.30;;;24.00;63.00;;;;;;5027361;28;20065;-56
2022/08/03 05:23:32;;;;;;;3.35;1.60;;;24.00;63.00;;;;;;5038566;28;20101;-56
2022/08/03 05:25:58;;;;;;;1.92;1.27;;;24.00;63.00;;;;;;5028966;28;20029;-56
2022/08/03 05:28:24;;;;;;;2.30;1.30;;;24.00;63.00;;;;;;5029638;28;20151;-55
2022/08/03 05:30:49;;;;;;;5.15;1.30;;;24.00;63.00;;;;;;5027888;28;20106;-56
2022/08/03 05:33:15;;;;;;;3.83;1.33;;;24.00;63.00;;;;;;5029655;28;20100;-56
2022/08/03 05:35:41;;;;;;;3.00;1.35;;;23.90;63.00;;;;;;5028891;28;20036;-55
2022/08/03 05:38:06;;;;;;;2.33;1.50;;;24.00;63.10;;;;;;5026747;28;20040;-56
2022/08/03 05:40:32;;;;;;;2.90;1.20;;;23.90;63.10;;;;;;5029181;28;20513;-56
2022/08/03 05:42:58;;;;;;;5.32;1.60;;;23.90;63.10;;;;;;5029475;28;20493;-56
2022/08/03 05:45:23;;;;;;;4.70;1.30;;;23.90;63.10;;;;;;5029728;28;20120;-56
2022/08/03 05:47:49;;;;;;;3.85;1.38;;;23.90;63.10;;;;;;5022894;28;20072;-56
2022/08/03 05:50:16;;;;;;;4.88;1.40;;;23.90;63.10;;;;;;5027596;28;20029;-56
2022/08/03 05:52:42;;;;;;;3.92;1.30;;;23.90;63.10;;;;;;5029006;28;20048;-56
2022/08/03 05:55:08;;;;;;;3.15;1.20;;;23.90;63.10;;;;;;5028950;28;20528;-55
2022/08/03 05:57:34;;;;;;;3.78;1.20;;;23.90;63.10;;;;;;5027419;28;20029;-56
2022/08/03 06:00:01;;;;;;;4.78;1.30;;;23.90;63.10;;;;;;5026742;28;20484;-56
2022/08/03 06:02:26;;;;;;;3.13;1.35;;;23.90;63.10;;;;;;5028017;28;20100;-56
2022/08/03 06:04:52;;;;;;;3.83;1.25;;;23.90;63.20;;;;;;5027111;28;20120;-56
2022/08/03 06:07:18;;;;;;;3.40;1.50;;;23.90;63.10;;;;;;5028452;28;20045;-56
2022/08/03 06:09:44;;;;;;;4.22;1.40;;;23.90;63.10;;;;;;5029298;28;20029;-56
2022/08/03 06:12:09;;;;;;;2.03;1.10;;;23.90;63.10;;;;;;5027899;28;20022;-56
2022/08/03 06:14:35;;;;;;;2.95;1.35;;;23.90;63.20;;;;;;5027866;28;20071;-56
2022/08/03 06:17:01;;;;;;;5.13;1.42;;;23.90;63.20;;;;;;5024030;28;20486;-56
2022/08/03 06:19:27;;;;;;;3.42;1.45;;;23.90;63.20;;;;;;5027365;28;20383;-56
2022/08/03 06:21:53;;;;;;;2.58;1.20;;;23.90;63.20;;;;;;5029309;28;20033;-56
2022/08/03 06:24:18;;;;;;;2.85;1.17;;;23.90;63.20;;;;;;5031568;28;20367;-55
2022/08/03 06:26:44;;;;;;;3.63;1.27;;;23.90;63.20;;;;;;5027562;28;20100;-56
2022/08/03 06:29:13;;;;;;;5.00;1.40;;;23.90;63.10;;;;;;5029709;28;20140;-56
2022/08/03 06:31:39;;;;;;;4.90;1.33;;;23.80;63.20;;;;;;5027138;28;21046;-56
2022/08/03 06:34:04;;;;;;;2.75;1.20;;;23.80;63.10;;;;;;5028354;28;20075;-56
2022/08/03 06:36:31;;;;;;;3.92;1.30;;;23.80;63.20;;;;;;5026792;28;20037;-56
2022/08/03 06:38:59;;;;;;;4.78;1.40;;;23.90;63.20;;;;;;5027608;28;20119;-56
2022/08/03 06:41:25;;;;;;;3.03;1.08;;;23.80;63.20;;;;;;5025030;28;20495;-56
2022/08/03 06:43:55;;;;;;;2.55;1.10;;;23.80;63.20;;;;;;5026383;28;20037;-56
2022/08/03 06:46:21;;;;;;;4.47;1.30;;;23.80;63.20;;;;;;5023589;28;20234;-56
2022/08/03 06:48:46;;;;;;;5.22;1.38;;;23.80;63.20;;;;;;5028034;28;20030;-56
2022/08/03 06:51:12;;;;;;;2.72;1.10;;;23.80;63.20;;;;;;5027630;28;20829;-56
2022/08/03 06:53:38;;;;;;;3.25;1.35;;;23.80;63.20;;;;;;5029600;28;20045;-56
2022/08/03 06:56:05;;;;;;;3.55;1.38;;;23.80;63.20;;;;;;5030350;28;20090;-56
2022/08/03 06:58:30;;;;;;;3.53;1.20;;;23.80;63.20;;;;;;5030731;28;20486;-56
2022/08/03 07:00:56;;;;;;;2.90;1.35;;;23.80;63.20;;;;;;5029983;28;20045;-56
2022/08/03 07:03:22;;;;;;;2.80;1.17;;;23.80;63.20;;;;;;5027726;28;20584;-56
2022/08/03 07:05:48;;;;;;;3.28;1.30;;;23.80;63.20;;;;;;5028126;28;20025;-56
2022/08/03 07:08:14;;;;;;;3.25;1.30;;;23.80;63.10;;;;;;5031421;28;20026;-56
2022/08/03 07:10:40;;;;;;;3.15;1.20;;;23.80;63.10;;;;;;5029213;28;20029;-56
2022/08/03 07:13:05;;;;;;;2.35;1.05;;;23.80;63.10;;;;;;5011874;28;20029;-56
2022/08/03 07:15:31;;;;;;;3.90;1.25;;;23.80;63.10;;;;;;5028204;28;20036;-56
2022/08/03 07:17:57;;;;;;;3.00;1.30;;;23.80;63.10;;;;;;5029784;28;20104;-56
2022/08/03 07:20:23;;;;;;;2.42;1.08;;;23.90;63.20;;;;;;5029410;28;20033;-56
2022/08/03 07:22:48;;;;;;;3.63;1.33;;;23.80;63.10;;;;;;5028176;28;20091;-56
2022/08/03 07:25:14;;;;;;;2.50;1.10;;;23.80;63.10;;;;;;5029702;28;20033;-56
2022/08/03 07:27:43;;;;;;;3.55;1.23;;;23.90;63.20;;;;;;5033829;28;20013;-56
2022/08/03 07:30:09;;;;;;;3.20;1.25;;;23.90;63.20;;;;;;5031499;28;20060;-56
2022/08/03 07:32:35;;;;;;;3.63;1.23;;;23.80;63.10;;;;;;5028967;28;20021;-56
2022/08/03 07:35:01;;;;;;;2.50;1.30;;;23.80;63.10;;;;;;5051042;28;20559;-56
2022/08/03 07:37:28;;;;;;;5.93;1.30;;;23.80;63.20;;;;;;5026375;28;20022;-56
2022/08/03 07:39:53;;;;;;;3.25;1.45;;;23.80;63.10;;;;;;5026375;28;20128;-56
2022/08/03 07:42:19;;;;;;;2.22;1.20;;;23.90;63.20;;;;;;5026348;28;20018;-56
2022/08/03 07:44:44;;;;;;;2.50;1.10;;;23.90;63.50;;;;;;5022180;28;20029;-56
2022/08/03 07:47:10;;;;;;;3.22;1.30;;;23.90;63.20;;;;;;5025026;28;20094;-56
2022/08/03 07:49:40;;;;;;;3.08;1.30;;;23.90;63.20;;;;;;5029606;28;20120;-56
2022/08/03 07:54:50;;;;;;;1.77;1.20;;;23.80;63.10;;;;;;5026075;28;20069;-55
2022/08/03 07:57:17;;;;;;;3.83;1.40;;;23.90;63.30;;;;;;5025406;28;20025;-56
2022/08/03 07:59:45;;;;;;;6.40;1.83;;;23.90;63.40;;;;;;5030701;28;20037;-56
2022/08/03 08:02:11;;;;;;;6.25;1.70;;;23.90;63.80;;;;;;5026502;28;20095;-56
2022/08/03 08:04:37;;;;;;;4.90;1.67;;;23.90;63.60;;;;;;5025350;28;20029;-56
2022/08/03 08:07:02;;;;;;;6.13;1.80;;;23.90;63.80;;;;;;5029515;28;20086;-56
2022/08/03 08:09:29;;;;;;;6.43;1.80;;;23.90;63.60;;;;;;5029405;28;20037;-56
2022/08/03 08:11:55;;;;;;;6.78;1.98;;;23.90;64.00;;;;;;5030298;28;20033;-56
2022/08/03 08:14:21;;;;;;;7.75;2.22;;;23.90;64.00;;;;;;5024813;28;20017;-56
2022/08/03 08:16:48;;;;;;;6.15;2.20;;;23.90;64.00;;;;;;5028330;28;20609;-56
2022/08/03 08:19:15;;;;;;;8.07;2.03;;;23.90;64.00;;;;;;5027894;28;20647;-57
2022/08/03 08:21:44;;;;;;;9.98;2.38;;;23.90;64.30;;;;;;5024388;28;20053;-57
2022/08/03 08:24:10;;;;;;;6.50;2.50;;;24.00;64.10;;;;;;5028381;28;20024;-57
2022/08/03 08:26:36;;;;;;;8.82;2.60;;;23.90;64.00;;;;;;5054900;28;20117;-57
2022/08/03 08:29:03;;;;;;;7.55;2.30;;;24.00;64.20;;;;;;5034582;28;20021;-57
2022/08/03 08:31:29;;;;;;;7.13;2.08;;;24.00;64.00;;;;;;5031502;28;20406;-57
2022/08/03 08:33:55;;;;;;;8.85;2.40;;;23.90;64.20;;;;;;5026969;28;20026;-58
2022/08/03 08:36:20;;;;;;;8.52;2.42;;;24.00;64.00;;;;;;5025873;28;20037;-57
2022/08/03 08:38:46;;;;;;;10.05;2.72;;;24.00;64.10;;;;;;5029091;28;20034;-57
2022/08/03 08:41:12;;;;;;;10.45;2.25;;;24.00;63.90;;;;;;5033831;28;20052;-57
2022/08/03 08:43:38;;;;;;;10.50;3.05;;;24.00;63.70;;;;;;5026677;28;20036;-56
2022/08/03 08:46:06;;;;;;;7.30;2.33;;;24.00;63.90;;;;;;5030270;28;20037;-57
2022/08/03 08:48:32;;;;;;;10.15;2.60;;;24.00;64.00;;;;;;5054662;28;20033;-56
2022/08/03 08:50:58;;;;;;;7.88;2.30;;;24.00;63.80;;;;;;5052055;28;20168;-57
2022/08/03 08:53:25;;;;;;;10.27;2.40;;;24.00;63.90;;;;;;5019049;28;20049;-56
2022/08/03 08:55:51;;;;;;;8.60;2.30;;;24.10;63.90;;;;;;5051119;28;20032;-57
2022/08/03 08:58:17;;;;;;;8.75;2.50;;;24.00;63.90;;;;;;5028468;28;20025;-57
2022/08/03 09:00:47;;;;;;;10.65;2.70;;;24.10;64.10;;;;;;5022885;28;20128;-57
2022/08/03 09:03:13;;;;;;;9.20;2.60;;;24.10;63.90;;;;;;5019544;28;20052;-57
2022/08/03 09:05:41;;;;;;;10.20;3.08;;;24.10;63.80;;;;;;5026395;28;20115;-57
2022/08/03 09:08:07;;;;;;;10.15;2.70;;;24.10;63.70;;;;;;5015141;28;20167;-56
2022/08/03 09:10:33;;;;;;;8.85;2.50;;;24.10;63.80;;;;;;5017956;28;20116;-57
2022/08/03 09:12:59;;;;;;;10.30;2.70;;;24.10;63.70;;;;;;5021666;28;20014;-56
2022/08/03 09:15:27;;;;;;;8.55;2.30;;;24.10;63.90;;;;;;5020260;28;20040;-57
2022/08/03 09:17:54;;;;;;;8.60;2.85;;;24.20;64.20;;;;;;5028255;28;20037;-57
2022/08/03 09:20:20;;;;;;;13.52;2.72;;;24.20;64.10;;;;;;5025801;28;20733;-57
2022/08/03 09:22:54;;;;;;;14.65;2.70;;;24.20;64.50;;;;;;5017387;28;20042;-57
2022/08/03 09:25:40;;;;;;;;;;;24.30;64.60;;;;;;5019732;28;20441;-57
2022/08/03 09:28:07;;;;;;;;;;;24.30;64.50;;;;;;5026376;28;20370;-57
2022/08/03 09:30:33;;;;;;;10.38;3.08;;;24.40;64.10;;;;;;5020955;28;19905;-57
2022/08/03 09:33:01;;;;;;;11.45;2.72;;;24.30;64.40;;;;;;5014100;28;20033;-57
2022/08/03 09:35:29;;;;;;;8.82;2.53;;;24.40;64.80;;;;;;5016702;28;20037;-56
2022/08/03 09:38:18;;;;;;;8.60;2.70;;;24.40;64.50;;;;;;5015062;28;20022;-57
2022/08/03 09:40:44;;;;;;;9.50;2.40;;;24.50;64.50;;;;;;5015334;28;20422;-56
2022/08/03 09:43:10;;;;;;;11.38;2.67;;;24.50;64.40;;;;;;5024899;28;20033;-57
2022/08/03 09:45:37;;;;;;;9.98;2.35;;;24.50;64.30;;;;;;5030474;28;20521;-56
2022/08/03 09:48:21;;;;;;;10.52;2.70;;;24.60;64.20;;;;;;5026762;28;20223;-56
2022/08/03 09:50:50;;;;;;;12.05;2.80;;;24.60;64.00;;;;;;5025134;28;20052;-57
2022/08/03 09:53:17;;;;;;;11.20;3.33;;;24.60;64.20;;;;;;5028926;28;20021;-57
2022/08/03 09:56:09;;;;;;;9.23;2.80;;;24.60;63.90;;;;;;5028391;28;20037;-57
2022/08/03 09:58:45;;;;;;;12.45;2.33;;;24.70;64.00;;;;;;5025842;28;20446;-57
2022/08/03 10:01:13;;;;;;;10.30;2.55;;;24.70;63.90;;;;;;5050392;28;20061;-57
2022/08/03 10:03:39;;;;;;;7.05;2.50;;;24.80;63.60;;;;;;5024022;28;20033;-57
2022/08/03 10:06:15;;;;;;;7.97;2.50;;;24.80;63.50;;;;;;5028133;28;20037;-57
2022/08/03 10:08:41;;;;;;;8.98;2.80;;;24.80;63.40;;;;;;5026691;28;20072;-57
2022/08/03 10:11:06;;;;;;;7.45;2.42;;;24.80;63.20;;;;;;5024220;28;20041;-57
2022/08/03 10:13:32;;;;;;;8.13;2.83;;;24.80;63.00;;;;;;5030028;28;20018;-57
2022/08/03 10:15:58;;;;;;;8.07;2.65;;;24.70;63.20;;;;;;5028034;28;20033;-57
2022/08/03 10:18:23;;;;;;;9.25;2.80;;;24.70;63.20;;;;;;5027996;28;20065;-57
2022/08/03 10:20:52;;;;;;;8.52;2.67;;;24.70;63.40;;;;;;5025701;28;20041;-57
2022/08/03 10:23:18;;;;;;;8.88;2.65;;;24.70;63.40;;;;;;5024935;28;20025;-57
2022/08/03 10:25:46;;;;;;;8.90;2.90;;;24.60;63.30;;;;;;5026623;28;20512;-57
2022/08/03 10:28:17;;;;;;;10.85;2.42;;;24.70;63.20;;;;;;5024113;28;20030;-57
2022/08/03 10:30:44;;;;;;;12.70;2.72;;;24.70;63.20;;;;;;5027771;28;20021;-57
2022/08/03 10:33:21;;;;;;;8.40;2.47;;;24.70;63.20;;;;;;5027235;28;20112;-57
2022/08/03 10:35:55;;;;;;;13.68;3.08;;;24.70;63.40;;;;;;5019568;28;20025;-57
2022/08/03 10:38:30;;;;;;;8.05;2.28;;;24.70;63.40;;;;;;5024113;28;20100;-57
2022/08/03 10:41:00;;;;;;;7.88;2.80;;;24.70;64.00;;;;;;5025677;28;20051;-57
2022/08/03 10:43:27;;;;;;;7.50;2.67;;;24.70;63.40;;;;;;5009056;28;20040;-57
2022/08/03 10:45:53;;;;;;;8.68;2.40;;;24.70;63.30;;;;;;5023557;28;20026;-57
2022/08/03 10:48:19;;;;;;;8.75;2.63;;;24.70;63.10;;;;;;5024738;28;20032;-57
2022/08/03 10:50:45;;;;;;;10.70;2.40;;;24.80;64.20;;;;;;5024880;28;20032;-57
2022/08/03 10:53:11;;;;;;;7.13;2.28;;;24.80;63.30;;;;;;5025501;28;20071;-57
2022/08/03 10:58:45;;;;;;;9.27;2.78;;;24.80;63.30;;;;;;5028049;28;20052;-57
2022/08/03 11:01:11;;;;;;;;;;;24.80;63.10;;;;;;5027855;28;20068;-57
2022/08/03 11:03:52;;;;;;;8.40;2.45;;;24.80;63.20;;;;;;5025745;28;19960;-57
2022/08/03 11:06:19;;;;;;;10.15;2.40;;;24.90;63.20;;;;;;5025883;28;20032;-57
2022/08/03 11:08:45;;;;;;;17.58;2.80;;;24.90;63.10;;;;;;5028145;28;20033;-57
2022/08/03 11:11:20;;;;;;;5.88;2.03;;;24.90;62.90;;;;;;5030026;28;20041;-57
2022/08/03 11:13:58;;;;;;;;;;;24.90;62.90;;;;;;5029709;28;20030;-57
2022/08/03 11:16:24;;;;;;;7.78;2.42;;;24.90;63.10;;;;;;5025517;28;19909;-57
2022/08/03 11:18:59;;;;;;;9.95;2.78;;;24.90;62.90;;;;;;5022949;28;20041;-57
2022/08/03 11:21:50;;;;;;;8.82;2.58;;;24.90;63.20;;;;;;5026863;28;20171;-56
2022/08/03 11:24:42;;;;;;;8.93;2.08;;;24.90;62.90;;;;;;5026583;28;20441;-56
2022/08/03 11:27:16;;;;;;;10.23;2.40;;;25.00;63.10;;;;;;5025759;28;20368;-56
2022/08/03 11:30:01;;;;;;;8.93;2.80;;;25.00;63.20;;;;;;5027224;28;20030;-56
2022/08/03 11:32:42;;;;;;;9.43;2.63;;;25.00;63.20;;;;;;5026920;28;20076;-56
2022/08/03 11:35:20;;;;;;;6.82;2.65;;;25.00;63.00;;;;;;5025432;28;20038;-56
2022/08/03 11:37:59;;;;;;;7.97;2.40;;;25.10;63.10;;;;;;5024722;28;20037;-56
2022/08/03 11:40:45;;;;;;;8.63;2.33;;;25.10;62.90;;;;;;5024985;28;22021;-56
2022/08/03 11:43:29;;;;;;;7.07;2.33;;;25.10;62.80;;;;;;5024562;28;20041;-57
2022/08/03 11:46:02;;;;;;;9.15;2.40;;;25.10;62.60;;;;;;5027023;28;20022;-57
2022/08/03 11:48:44;;;;;;;10.25;2.28;;;25.10;62.50;;;;;;5026861;28;20022;-57
2022/08/03 11:51:23;;;;;;;8.57;2.83;;;25.10;62.60;;;;;;5027103;28;20028;-57
2022/08/03 11:54:03;;;;;;;8.75;2.47;;;25.10;62.40;;;;;;5027614;28;20048;-57
2022/08/03 11:56:42;;;;;;;9.80;2.50;;;25.20;62.60;;;;;;5026220;28;20036;-57
2022/08/03 11:59:07;;;;;;;13.65;2.92;;;25.20;62.50;;;;;;5026050;28;20026;-57
2022/08/03 12:01:33;;;;;;;9.93;3.00;;;25.20;62.60;;;;;;5029225;28;20042;-57
2022/08/03 12:04:03;;;;;;;9.57;2.55;;;25.20;62.30;;;;;;5028448;28;20029;-57
2022/08/03 12:06:29;;;;;;;10.57;2.70;;;25.30;63.50;;;;;;5030032;28;20041;-57
2022/08/03 12:08:54;;;;;;;9.75;2.60;;;25.30;62.40;;;;;;5031521;28;20041;-56
2022/08/03 12:11:20;;;;;;;10.48;2.50;;;25.40;62.60;;;;;;5034545;28;20099;-57
2022/08/03 12:13:48;;;;;;;8.48;2.40;;;25.40;62.60;;;;;;5027459;28;20036;-56
2022/08/03 12:16:21;;;;;;;10.00;2.70;;;25.50;62.20;;;;;;5028655;28;20499;-56
2022/08/03 12:19:00;;;;;;;6.90;2.35;;;25.40;62.20;;;;;;5031346;28;20572;-57
2022/08/03 12:21:27;;;;;;;8.45;2.55;;;25.50;62.00;;;;;;5029568;28;20025;-57
2022/08/03 12:23:59;;;;;;;8.52;2.38;;;25.50;62.10;;;;;;5029723;28;20026;-57
2022/08/03 12:26:25;;;;;;;9.77;2.45;;;25.50;62.00;;;;;;5030243;28;20021;-56
2022/08/03 12:28:51;;;;;;;7.97;2.40;;;25.50;61.80;;;;;;5029839;28;20502;-56
2022/08/03 12:31:17;;;;;;;6.13;2.00;;;25.50;61.80;;;;;;5027396;28;20587;-56
2022/08/03 12:34:02;;;;;;;10.70;2.70;;;25.60;61.60;;;;;;5022584;28;20081;-56
2022/08/03 12:36:30;;;;;;;8.88;2.25;;;25.60;61.80;;;;;;5030226;28;20494;-56
2022/08/03 12:39:02;;;;;;;9.15;2.55;;;25.60;61.50;;;;;;5032797;28;20041;-58
2022/08/03 12:41:38;;;;;;;9.73;2.40;;;25.60;61.40;;;;;;5031831;28;20503;-57
2022/08/03 12:44:07;;;;;;;9.05;2.65;;;25.60;61.40;;;;;;5027399;28;20053;-57
2022/08/03 12:46:42;;;;;;;7.75;2.38;;;25.70;61.30;;;;;;5029241;28;20025;-57
2022/08/03 12:49:17;;;;;;;9.77;2.53;;;25.70;61.30;;;;;;5033015;28;20045;-57
2022/08/03 12:51:45;;;;;;;9.32;2.60;;;25.70;61.20;;;;;;5031008;28;20021;-57
2022/08/03 12:54:22;;;;;;;8.73;2.75;;;25.70;61.30;;;;;;5027048;28;20609;-56
2022/08/03 12:57:03;;;;;;;9.85;2.28;;;25.80;61.10;;;;;;5030671;28;20513;-57
2022/08/03 12:59:42;;;;;;;7.47;2.38;;;25.80;61.20;;;;;;5027756;28;20375;-57
2022/08/03 13:02:18;;;;;;;8.93;2.35;;;25.80;61.20;;;;;;5029131;28;20524;-57
2022/08/03 13:04:48;;;;;;;9.30;2.35;;;25.80;61.00;;;;;;5030700;28;20229;-57
2022/08/03 13:07:14;;;;;;;11.82;2.58;;;25.90;61.10;;;;;;5033451;28;20025;-57
2022/08/03 13:09:42;;;;;;;15.15;2.78;;;25.80;60.50;;;;;;5031515;28;20440;-56